createdAt,value
2022-10-29T00:00:05.628Z,12.05
2022-10-29T00:02:35.472Z,12.00
2022-10-29T00:05:02.504Z,11.96
2022-10-29T00:07:29.349Z,11.90
2022-10-29T00:09:55.969Z,11.85
2022-10-29T00:12:23.463Z,11.80
2022-10-29T00:14:50.816Z,11.74
2022-10-29T00:17:17.593Z,11.70
2022-10-29T00:19:45.010Z,11.64
2022-10-29T00:22:11.935Z,11.58
2022-10-29T00:24:38.748Z,11.53
2022-10-29T00:27:05.544Z,11.47
2022-10-29T00:29:32.475Z,11.40
2022-10-29T00:31:59.289Z,11.34
2022-10-29T00:34:25.971Z,11.28
2022-10-29T00:36:53.024Z,11.21
2022-10-29T00:39:19.907Z,11.15
2022-10-29T00:41:46.548Z,11.09
2022-10-29T00:44:20.625Z,11.03
2022-10-29T00:46:48.584Z,10.96
2022-10-29T00:49:15.504Z,10.89
2022-10-29T00:51:42.419Z,10.84
2022-10-29T00:54:11.348Z,10.79
2022-10-29T00:56:40.254Z,10.75
2022-10-29T00:59:07.070Z,10.69
2022-10-29T01:01:33.952Z,10.59
2022-10-29T01:04:00.763Z,10.50
2022-10-29T01:06:27.681Z,10.42
2022-10-29T01:08:54.318Z,10.35
2022-10-29T01:11:29.846Z,10.32
2022-10-29T01:14:07.024Z,10.28
2022-10-29T01:16:40.468Z,10.25
2022-10-29T01:19:12.940Z,10.21
2022-10-29T01:21:42.855Z,10.16
2022-10-29T01:24:12.614Z,10.11
2022-10-29T01:27:17.000Z,10.07
2022-10-29T01:29:52.740Z,10.04
2022-10-29T01:32:25.128Z,10.03
2022-10-29T01:35:24.355Z,9.98
2022-10-29T01:38:07.603Z,9.91
2022-10-29T01:40:37.748Z,9.85
2022-10-29T01:43:11.896Z,9.79
2022-10-29T01:45:38.638Z,9.74
2022-10-29T01:48:11.824Z,9.70
2022-10-29T01:50:39.159Z,9.66
2022-10-29T01:53:05.799Z,9.63
2022-10-29T01:55:35.299Z,9.60
2022-10-29T01:58:05.458Z,9.57
2022-10-29T02:00:57.878Z,9.53
2022-10-29T02:03:27.511Z,9.48
2022-10-29T02:06:42.227Z,9.45
2022-10-29T02:09:15.290Z,9.43
2022-10-29T02:12:06.838Z,9.39
2022-10-29T02:14:36.147Z,9.34
2022-10-29T02:17:02.882Z,9.31
2022-10-29T02:19:33.299Z,9.29
2022-10-29T02:21:59.947Z,9.28
2022-10-29T02:24:26.673Z,9.25
2022-10-29T02:26:53.412Z,9.23
2022-10-29T02:29:20.202Z,9.22
2022-10-29T02:31:46.936Z,9.19
2022-10-29T02:34:13.623Z,9.17
2022-10-29T02:36:40.345Z,9.15
2022-10-29T02:39:07.189Z,9.12
2022-10-29T02:41:33.838Z,9.12
2022-10-29T02:44:00.575Z,9.10
2022-10-29T02:46:27.275Z,9.07
2022-10-29T02:48:53.895Z,9.04
2022-10-29T02:51:20.658Z,9.01
2022-10-29T02:53:47.315Z,8.99
2022-10-29T02:56:13.970Z,8.96
2022-10-29T02:58:40.622Z,8.93
2022-10-29T03:01:07.329Z,8.88
2022-10-29T03:03:33.966Z,8.81
2022-10-29T03:06:00.644Z,8.78
2022-10-29T03:08:27.297Z,8.76
2022-10-29T03:10:55.182Z,8.72
2022-10-29T03:13:21.881Z,8.68
2022-10-29T03:15:48.591Z,8.66
2022-10-29T03:18:15.330Z,8.62
2022-10-29T03:20:43.006Z,8.58
2022-10-29T03:23:09.682Z,8.54
2022-10-29T03:25:36.344Z,8.49
2022-10-29T03:28:04.943Z,8.47
2022-10-29T03:30:31.616Z,8.44
2022-10-29T03:32:58.389Z,8.41
2022-10-29T03:35:25.415Z,8.39
2022-10-29T03:37:52.222Z,8.37
2022-10-29T03:40:19.315Z,8.34
2022-10-29T03:42:46.108Z,8.32
2022-10-29T03:45:12.859Z,8.29
2022-10-29T03:47:39.669Z,8.27
2022-10-29T03:50:06.835Z,8.24
2022-10-29T03:52:33.479Z,8.21
2022-10-29T03:55:00.131Z,8.19
2022-10-29T03:57:26.904Z,8.16
2022-10-29T03:59:53.718Z,8.13
2022-10-29T04:02:20.771Z,8.08
2022-10-29T04:04:47.748Z,7.94
2022-10-29T04:07:14.522Z,7.85
2022-10-29T04:09:41.425Z,7.81
2022-10-29T04:12:08.675Z,7.78
2022-10-29T04:14:35.372Z,7.74
2022-10-29T04:17:02.072Z,7.73
2022-10-29T04:19:28.700Z,7.71
2022-10-29T04:27:07.696Z,7.69
2022-10-29T04:28:36.735Z,7.69
2022-10-29T04:30:15.616Z,7.67
2022-10-29T04:32:42.294Z,7.64
2022-10-29T04:35:09.123Z,7.61
2022-10-29T04:37:35.758Z,7.59
2022-10-29T04:40:02.610Z,7.59
2022-10-29T04:42:29.398Z,7.57
2022-10-29T04:44:56.022Z,7.55
2022-10-29T04:47:22.744Z,7.53
2022-10-29T04:49:49.709Z,7.52
2022-10-29T04:52:16.408Z,7.52
2022-10-29T04:54:43.123Z,7.52
2022-10-29T04:57:09.810Z,7.52
2022-10-29T04:59:36.417Z,7.51
2022-10-29T05:02:03.082Z,7.53
2022-10-29T05:04:29.806Z,7.56
2022-10-29T05:06:56.470Z,7.59
2022-10-29T05:09:23.158Z,7.61
2022-10-29T05:11:49.797Z,7.63
2022-10-29T05:14:16.429Z,7.65
2022-10-29T05:16:43.165Z,7.67
2022-10-29T05:19:09.803Z,7.69
2022-10-29T05:21:36.611Z,7.69
2022-10-29T05:24:03.460Z,7.72
2022-10-29T05:26:32.198Z,7.74
2022-10-29T05:28:58.936Z,7.81
2022-10-29T05:31:25.715Z,7.88
2022-10-29T05:33:55.464Z,7.95
2022-10-29T05:36:22.928Z,8.07
2022-10-29T05:38:49.632Z,8.20
2022-10-29T05:41:16.350Z,8.32
2022-10-29T05:43:43.161Z,8.39
2022-10-29T05:46:09.819Z,8.46
2022-10-29T05:48:36.548Z,8.52
2022-10-29T05:51:04.489Z,8.57
2022-10-29T05:53:31.260Z,8.63
2022-10-29T05:55:58.759Z,8.70
2022-10-29T05:58:25.595Z,8.78
2022-10-29T06:00:52.322Z,8.87
2022-10-29T06:03:20.791Z,9.00
2022-10-29T06:05:48.024Z,9.12
2022-10-29T06:08:15.372Z,9.26
2022-10-29T06:10:42.005Z,9.41
2022-10-29T06:13:19.547Z,9.59
2022-10-29T06:15:46.933Z,9.86
2022-10-29T06:18:13.751Z,10.18
2022-10-29T06:20:40.737Z,10.51
2022-10-29T06:23:07.748Z,10.82
2022-10-29T06:25:34.394Z,11.07
2022-10-29T06:28:02.306Z,11.30
2022-10-29T06:30:32.811Z,11.51
2022-10-29T06:32:59.900Z,11.71
2022-10-29T06:36:42.766Z,12.17
2022-10-29T06:39:09.476Z,12.53
2022-10-29T06:41:36.180Z,12.92
2022-10-29T06:44:02.921Z,13.33
2022-10-29T06:46:29.666Z,13.66
2022-10-29T06:48:56.559Z,13.89
2022-10-29T06:53:54.994Z,14.06
2022-10-29T06:56:21.875Z,14.03
2022-10-29T06:58:48.488Z,13.99
2022-10-29T07:01:15.209Z,13.92
2022-10-29T07:03:41.947Z,13.90
2022-10-29T07:06:08.725Z,13.99
2022-10-29T07:08:35.468Z,14.13
2022-10-29T07:11:02.991Z,14.30
2022-10-29T07:13:29.828Z,14.51
2022-10-29T07:15:56.488Z,14.73
2022-10-29T07:18:23.137Z,14.88
2022-10-29T07:20:49.832Z,14.96
2022-10-29T07:23:16.644Z,14.96
2022-10-29T07:25:43.363Z,14.93
2022-10-29T07:28:16.240Z,14.89
2022-10-29T07:30:43.423Z,14.83
2022-10-29T07:33:10.616Z,14.77
2022-10-29T07:35:37.361Z,14.68
2022-10-29T07:38:09.052Z,14.61
2022-10-29T07:40:38.534Z,14.53
2022-10-29T07:43:05.354Z,14.47
2022-10-29T07:45:32.293Z,14.44
2022-10-29T07:48:03.441Z,14.39
2022-10-29T07:50:30.736Z,14.39
2022-10-29T07:53:01.043Z,14.40
2022-10-29T07:58:02.400Z,14.45
2022-10-29T08:00:30.103Z,14.46
2022-10-29T08:02:56.991Z,14.45
2022-10-29T08:05:24.222Z,14.46
2022-10-29T08:07:53.199Z,14.50
2022-10-29T08:10:20.086Z,14.58
2022-10-29T08:12:54.182Z,14.65
2022-10-29T08:15:21.087Z,14.70
2022-10-29T08:17:47.913Z,14.77
2022-10-29T08:20:14.955Z,14.89
2022-10-29T08:22:41.903Z,15.03
2022-10-29T08:25:08.854Z,15.18
2022-10-29T08:27:36.635Z,15.31
2022-10-29T08:30:06.767Z,15.45
2022-10-29T08:32:35.766Z,15.55
2022-10-29T08:35:03.110Z,15.61
2022-10-29T08:37:29.992Z,15.66
2022-10-29T08:39:56.734Z,15.70
2022-10-29T08:42:30.724Z,15.73
2022-10-29T08:44:57.555Z,15.75
2022-10-29T08:47:24.463Z,15.79
2022-10-29T08:50:04.166Z,15.82
2022-10-29T08:52:34.241Z,15.81
2022-10-29T08:55:08.266Z,15.87
2022-10-29T08:57:38.406Z,15.93
2022-10-29T09:00:13.476Z,15.94
2022-10-29T09:02:40.490Z,15.91
2022-10-29T09:05:17.237Z,15.92
2022-10-29T09:07:50.066Z,16.01
2022-10-29T09:10:43.497Z,16.12
2022-10-29T09:13:37.091Z,16.20
2022-10-29T09:16:07.591Z,16.32
2022-10-29T09:18:47.156Z,16.40
2022-10-29T09:21:32.046Z,16.46
2022-10-29T09:24:12.563Z,16.55
2022-10-29T09:26:52.756Z,16.63
2022-10-29T09:29:46.044Z,16.68
2022-10-29T09:32:16.723Z,16.68
2022-10-29T09:34:51.005Z,16.62
2022-10-29T09:37:42.752Z,16.59
2022-10-29T09:40:34.133Z,16.55
2022-10-29T09:43:05.221Z,16.56
2022-10-29T09:45:44.320Z,16.59
2022-10-29T09:48:20.517Z,16.65
2022-10-29T09:50:55.681Z,16.71
2022-10-29T09:53:22.393Z,16.82
2022-10-29T09:55:54.853Z,16.92
2022-10-29T09:58:23.362Z,17.04
2022-10-29T10:00:50.828Z,17.11
2022-10-29T10:03:46.902Z,17.17
2022-10-29T10:06:15.468Z,17.24
2022-10-29T10:09:02.130Z,17.25
2022-10-29T10:11:40.105Z,17.27
2022-10-29T10:14:24.379Z,17.28
2022-10-29T10:16:58.406Z,17.29
2022-10-29T10:19:27.723Z,17.30
2022-10-29T10:22:02.347Z,17.33
2022-10-29T10:24:36.957Z,17.36
2022-10-29T10:27:24.874Z,17.39
2022-10-29T10:30:05.032Z,17.39
2022-10-29T10:32:32.710Z,17.42
2022-10-29T10:34:59.378Z,17.45
2022-10-29T10:37:26.397Z,17.48
2022-10-29T10:40:06.412Z,17.51
2022-10-29T10:42:37.190Z,17.53
2022-10-29T10:45:13.247Z,17.55
2022-10-29T10:47:42.907Z,17.56
2022-10-29T10:50:16.027Z,17.55
2022-10-29T10:52:42.782Z,17.54
2022-10-29T10:55:33.249Z,17.54
2022-10-29T10:58:10.652Z,17.56
2022-10-29T11:00:40.732Z,17.57
2022-10-29T11:03:29.546Z,17.56
2022-10-29T11:06:18.712Z,17.54
2022-10-29T11:08:58.836Z,17.52
2022-10-29T11:12:09.237Z,17.49
2022-10-29T11:14:55.107Z,17.49
2022-10-29T11:17:32.290Z,17.48
2022-10-29T11:20:03.203Z,17.46
2022-10-29T11:23:13.744Z,17.40
2022-10-29T11:25:43.417Z,17.39
2022-10-29T11:28:41.168Z,17.38
2022-10-29T11:31:44.122Z,17.38
2022-10-29T11:34:31.302Z,17.38
2022-10-29T11:37:01.871Z,17.38
2022-10-29T11:39:32.109Z,17.39
2022-10-29T11:41:59.822Z,17.43
2022-10-29T11:44:27.136Z,17.46
2022-10-29T11:47:18.807Z,17.49
2022-10-29T11:50:17.013Z,17.51
2022-10-29T11:52:48.599Z,17.55
2022-10-29T11:55:28.602Z,17.57
2022-10-29T11:58:01.359Z,17.59
2022-10-29T12:00:31.953Z,17.60
2022-10-29T12:03:14.012Z,17.60
2022-10-29T12:05:56.079Z,17.60
2022-10-29T12:08:29.272Z,17.62
2022-10-29T12:11:13.630Z,17.64
2022-10-29T12:13:59.438Z,17.65
2022-10-29T12:16:29.091Z,17.65
2022-10-29T12:19:17.245Z,17.69
2022-10-29T12:21:50.729Z,17.78
2022-10-29T12:24:27.864Z,17.85
2022-10-29T12:27:15.194Z,17.89
2022-10-29T12:30:07.007Z,17.91
2022-10-29T12:32:50.331Z,17.93
2022-10-29T12:35:44.538Z,17.96
2022-10-29T12:38:36.750Z,17.98
2022-10-29T12:41:17.470Z,17.97
2022-10-29T12:43:44.100Z,17.95
2022-10-29T12:46:24.959Z,17.93
2022-10-29T12:49:13.951Z,17.93
2022-10-29T12:52:02.660Z,17.94
2022-10-29T12:54:47.725Z,17.95
2022-10-29T12:57:14.567Z,17.96
2022-10-29T12:59:42.056Z,17.98
2022-10-29T13:02:28.159Z,18.00
2022-10-29T13:05:10.715Z,18.01
2022-10-29T13:07:46.767Z,17.99
2022-10-29T13:10:23.569Z,17.98
2022-10-29T13:13:00.063Z,17.97
2022-10-29T13:15:48.050Z,17.96
2022-10-29T13:18:30.473Z,17.94
2022-10-29T13:20:57.593Z,17.92
2022-10-29T13:23:24.352Z,17.89
2022-10-29T13:26:00.240Z,17.87
2022-10-29T13:28:27.246Z,17.84
2022-10-29T13:31:00.570Z,17.83
2022-10-29T13:33:27.765Z,17.80
2022-10-29T13:36:01.450Z,17.77
2022-10-29T13:39:06.388Z,17.75
2022-10-29T13:41:43.499Z,17.71
2022-10-29T13:44:24.056Z,17.69
2022-10-29T13:47:01.665Z,17.68
2022-10-29T13:49:37.814Z,17.68
2022-10-29T13:52:06.573Z,17.67
2022-10-29T13:54:43.839Z,17.65
2022-10-29T13:57:13.883Z,17.62
2022-10-29T14:00:10.930Z,17.59
2022-10-29T14:02:44.438Z,17.56
2022-10-29T14:05:12.685Z,17.53
2022-10-29T14:08:00.740Z,17.49
2022-10-29T14:10:39.775Z,17.46
2022-10-29T14:13:24.902Z,17.44
2022-10-29T14:16:07.474Z,17.42
2022-10-29T14:18:41.937Z,17.38
2022-10-29T14:21:16.660Z,17.36
2022-10-29T14:24:07.150Z,17.33
2022-10-29T14:26:35.721Z,17.30
2022-10-29T14:29:24.954Z,17.28
2022-10-29T14:32:15.657Z,17.26
2022-10-29T14:34:42.684Z,17.24
2022-10-29T14:37:17.249Z,17.21
2022-10-29T14:39:57.895Z,17.19
2022-10-29T14:42:39.564Z,17.17
2022-10-29T14:45:09.013Z,17.18
2022-10-29T14:47:39.847Z,17.17
2022-10-29T14:50:15.104Z,17.16
2022-10-29T14:52:44.327Z,17.14
2022-10-29T14:55:17.236Z,17.11
2022-10-29T14:57:47.160Z,17.08
2022-10-29T15:00:25.510Z,17.03
2022-10-29T15:02:53.658Z,17.01
2022-10-29T15:05:29.622Z,16.99
2022-10-29T15:08:09.065Z,16.96
2022-10-29T15:10:55.927Z,16.96
2022-10-29T15:13:31.854Z,16.95
2022-10-29T15:16:07.149Z,16.93
2022-10-29T15:18:35.057Z,16.92
2022-10-29T15:21:02.270Z,16.92
2022-10-29T15:23:37.193Z,16.92
2022-10-29T15:26:05.566Z,16.90
2022-10-29T15:28:40.539Z,16.88
2022-10-29T15:31:07.788Z,16.86
2022-10-29T15:33:35.983Z,16.86
2022-10-29T15:36:05.340Z,16.86
2022-10-29T15:38:36.332Z,16.86
2022-10-29T15:41:19.597Z,16.83
2022-10-29T15:43:50.210Z,16.78
2022-10-29T15:46:31.778Z,16.76
2022-10-29T15:48:59.107Z,16.72
2022-10-29T15:51:30.935Z,16.70
2022-10-29T15:53:59.823Z,16.67
2022-10-29T15:56:27.309Z,16.64
2022-10-29T15:58:55.139Z,16.59
2022-10-29T16:01:23.273Z,16.58
2022-10-29T16:03:52.303Z,16.55
2022-10-29T16:06:20.172Z,16.53
2022-10-29T16:08:55.533Z,16.51
2022-10-29T16:11:22.357Z,16.48
2022-10-29T16:13:54.817Z,16.48
2022-10-29T16:16:23.659Z,16.48
2022-10-29T16:18:51.596Z,16.48
2022-10-29T16:21:23.418Z,16.49
2022-10-29T16:23:51.000Z,16.49
2022-10-29T16:26:20.423Z,16.49
2022-10-29T16:28:48.337Z,16.50
2022-10-29T16:31:23.274Z,16.50
2022-10-29T16:33:53.147Z,16.50
2022-10-29T16:36:20.611Z,16.49
2022-10-29T16:38:47.841Z,16.48
2022-10-29T16:41:16.069Z,16.49
2022-10-29T16:43:43.573Z,16.50
2022-10-29T16:46:11.034Z,16.52
2022-10-29T16:48:38.869Z,16.54
2022-10-29T16:51:06.156Z,16.55
2022-10-29T16:53:34.447Z,16.55
2022-10-29T16:56:01.844Z,16.56
2022-10-29T16:58:28.877Z,16.58
2022-10-29T17:01:05.703Z,16.58
2022-10-29T17:03:33.261Z,16.59
2022-10-29T17:06:04.544Z,16.60
2022-10-29T17:08:35.007Z,16.61
2022-10-29T17:11:02.245Z,16.61
2022-10-29T17:13:28.862Z,16.61
2022-10-29T17:15:55.875Z,16.60
2022-10-29T17:18:24.563Z,16.60
2022-10-29T17:20:56.202Z,16.58
2022-10-29T17:23:23.249Z,16.59
2022-10-29T17:25:57.471Z,16.56
2022-10-29T17:28:25.099Z,16.53
2022-10-29T17:30:51.836Z,16.53
2022-10-29T17:33:18.939Z,16.52
2022-10-29T17:35:45.971Z,16.53
2022-10-29T17:38:12.687Z,16.54
2022-10-29T17:40:39.771Z,16.52
2022-10-29T17:43:06.860Z,16.51
2022-10-29T17:45:33.911Z,16.50
2022-10-29T17:48:01.927Z,16.49
2022-10-29T17:50:29.006Z,16.47
2022-10-29T17:52:58.003Z,16.45
2022-10-29T17:55:25.033Z,16.45
2022-10-29T17:57:51.946Z,16.43
2022-10-29T18:00:19.674Z,16.40
2022-10-29T18:02:50.942Z,16.39
2022-10-29T18:05:18.434Z,16.38
2022-10-29T18:07:45.199Z,16.37
2022-10-29T18:10:12.161Z,16.37
2022-10-29T18:12:40.198Z,16.35
2022-10-29T18:15:07.585Z,16.35
2022-10-29T18:17:34.444Z,16.34
2022-10-29T18:20:01.211Z,16.32
2022-10-29T18:22:28.070Z,16.31
2022-10-29T18:24:54.895Z,16.31
2022-10-29T18:27:21.561Z,16.30
2022-10-29T18:29:48.857Z,16.28
2022-10-29T18:32:16.329Z,16.27
2022-10-29T18:34:43.325Z,16.26
2022-10-29T18:37:10.510Z,16.24
2022-10-29T18:39:38.234Z,16.24
2022-10-29T18:42:05.472Z,16.23
2022-10-29T18:44:32.839Z,16.19
2022-10-29T18:46:59.558Z,16.17
2022-10-29T18:49:27.773Z,16.17
2022-10-29T18:54:56.422Z,16.18
2022-10-29T18:57:23.472Z,16.13
2022-10-29T18:59:50.462Z,16.10
2022-10-29T19:02:17.574Z,16.06
2022-10-29T19:04:44.619Z,16.02
2022-10-29T19:07:11.542Z,15.99
2022-10-29T19:09:38.744Z,15.96
2022-10-29T19:12:05.745Z,15.93
2022-10-29T19:14:32.426Z,15.90
2022-10-29T19:16:59.357Z,15.88
2022-10-29T19:19:26.224Z,15.84
2022-10-29T19:21:53.165Z,15.83
2022-10-29T19:24:19.985Z,15.80
2022-10-29T19:26:46.887Z,15.77
2022-10-29T19:29:13.756Z,15.73
2022-10-29T19:31:40.580Z,15.71
2022-10-29T19:34:07.691Z,15.68
2022-10-29T19:36:38.227Z,15.68
2022-10-29T19:39:05.503Z,15.68
2022-10-29T19:41:32.859Z,15.67
2022-10-29T19:44:01.081Z,15.65
2022-10-29T19:46:28.375Z,15.65
2022-10-29T19:48:55.868Z,15.66
2022-10-29T19:51:22.722Z,15.65
2022-10-29T19:53:51.658Z,15.66
2022-10-29T19:56:18.710Z,15.68
2022-10-29T19:58:46.066Z,15.68
2022-10-29T20:01:16.283Z,15.67
2022-10-29T20:03:43.804Z,15.67
2022-10-29T20:06:11.029Z,15.66
2022-10-29T20:08:38.101Z,15.67
2022-10-29T20:11:04.927Z,15.68
2022-10-29T20:13:32.060Z,15.67
2022-10-29T20:15:59.187Z,15.65
2022-10-29T20:18:26.466Z,15.64
2022-10-29T20:20:55.573Z,15.63
2022-10-29T20:23:23.238Z,15.63
2022-10-29T20:25:50.217Z,15.60
2022-10-29T20:28:17.092Z,15.59
2022-10-29T20:30:43.746Z,15.57
2022-10-29T20:33:10.633Z,15.55
2022-10-29T20:35:37.699Z,15.54
2022-10-29T20:38:04.578Z,15.52
2022-10-29T20:40:31.340Z,15.51
2022-10-29T20:42:58.035Z,15.50
2022-10-29T20:45:24.751Z,15.50
2022-10-29T20:47:51.792Z,15.49
2022-10-29T20:50:18.511Z,15.47
2022-10-29T20:52:48.561Z,15.45
2022-10-29T20:55:16.252Z,15.42
2022-10-29T20:57:42.958Z,15.39
2022-10-29T21:00:10.371Z,15.36
2022-10-29T21:02:37.293Z,15.34
2022-10-29T21:05:04.565Z,15.32
2022-10-29T21:07:31.491Z,15.29
2022-10-29T21:09:58.207Z,15.25
2022-10-29T21:12:24.870Z,15.23
2022-10-29T21:14:51.507Z,15.21
2022-10-29T21:17:18.169Z,15.19
2022-10-29T21:19:44.821Z,15.18
2022-10-29T21:22:14.895Z,15.16
2022-10-29T21:24:44.612Z,15.12
2022-10-29T21:27:12.403Z,15.10
2022-10-29T21:29:39.291Z,15.08
2022-10-29T21:32:06.384Z,15.04
2022-10-29T21:34:33.079Z,15.00
2022-10-29T21:36:59.715Z,14.98
2022-10-29T21:39:27.632Z,14.97
2022-10-29T21:41:54.359Z,14.95
2022-10-29T21:44:21.028Z,14.94
2022-10-29T21:46:47.702Z,14.93
2022-10-29T21:49:14.315Z,14.93
2022-10-29T21:51:40.968Z,14.92
2022-10-29T21:54:07.813Z,14.91
2022-10-29T21:56:34.531Z,14.90
2022-10-29T21:59:01.421Z,14.87
2022-10-29T22:01:28.272Z,14.85
2022-10-29T22:03:55.031Z,14.82
2022-10-29T22:06:22.705Z,14.79
2022-10-29T22:08:54.096Z,14.76
2022-10-29T22:11:20.729Z,14.73
2022-10-29T22:13:47.440Z,14.71
2022-10-29T22:16:14.103Z,14.69
2022-10-29T22:18:40.781Z,14.67
2022-10-29T22:21:20.384Z,14.66
2022-10-29T22:23:48.834Z,14.65
2022-10-29T22:26:17.515Z,14.63
2022-10-29T22:28:44.623Z,14.61
2022-10-29T22:31:11.317Z,14.60
2022-10-29T22:33:37.975Z,14.59
2022-10-29T22:36:10.041Z,14.59
2022-10-29T22:38:37.095Z,14.57
2022-10-29T22:41:05.811Z,14.56
2022-10-29T22:43:32.571Z,14.54
2022-10-29T22:45:59.264Z,14.52
2022-10-29T22:48:25.960Z,14.52
2022-10-29T22:51:02.803Z,14.49
2022-10-29T22:53:29.726Z,14.46
2022-10-29T22:55:56.440Z,14.44
2022-10-29T22:58:23.311Z,14.42
2022-10-29T23:00:50.106Z,14.40
2022-10-29T23:03:16.819Z,14.39
2022-10-29T23:05:43.456Z,14.39
2022-10-29T23:08:10.180Z,14.39
2022-10-29T23:10:36.831Z,14.40
2022-10-29T23:13:03.458Z,14.39
2022-10-29T23:15:30.162Z,14.38
2022-10-29T23:17:56.975Z,14.37
2022-10-29T23:20:23.894Z,14.36
2022-10-29T23:22:50.602Z,14.35
2022-10-29T23:25:17.238Z,14.34
2022-10-29T23:27:43.884Z,14.34
2022-10-29T23:30:11.103Z,14.34
2022-10-29T23:32:37.826Z,14.35
2022-10-29T23:35:04.745Z,14.35
2022-10-29T23:37:31.446Z,14.35
2022-10-29T23:39:58.131Z,14.33
2022-10-29T23:42:24.777Z,14.32
2022-10-29T23:44:51.516Z,14.31
2022-10-29T23:47:18.160Z,14.30
2022-10-29T23:49:44.809Z,14.29
2022-10-29T23:52:11.544Z,14.28
2022-10-29T23:54:38.199Z,14.27
2022-10-29T23:57:04.851Z,14.27
2022-10-29T23:59:31.519Z,14.26
